Terminal Aerodrome Forecast
Issued by NWS Omaha/Valley, NE

Home | Current Version | Previous Version | Graphics & Text | Print | Product List | Glossary On
Versions: 1 2 3 4 5 6 7 8 9 10 11 12 13 14 15
000
FTUS43 KOAX 181350 AAA
TAFOFK
TAF AMD
KOFK 181350Z 1814/1912 28007KT P6SM SCT250
     FM181800 31010KT P6SM SCT100
     FM190000 30007KT P6SM SKC
     FM190300 VRB04KT P6SM FEW250=

USA.gov is the U.S. government's official web portal to all federal, state and local government web resources and services.